createdAt,value
2023-05-04T00:00:42.062Z,100
2023-05-04T00:01:43.491Z,100
2023-05-04T00:02:47.192Z,100
2023-05-04T00:03:47.522Z,100
2023-05-04T00:05:42.055Z,100
2023-05-04T00:06:42.058Z,100
2023-05-04T00:07:42.048Z,100
2023-05-04T00:08:42.070Z,100
2023-05-04T00:09:42.080Z,100
2023-05-04T00:10:42.050Z,100
2023-05-04T00:11:42.054Z,100
2023-05-04T00:12:42.059Z,100
2023-05-04T00:13:42.052Z,100
2023-05-04T00:14:42.089Z,100
2023-05-04T00:15:42.060Z,100
2023-05-04T00:16:42.068Z,100
2023-05-04T00:17:42.062Z,100
2023-05-04T00:18:42.056Z,100
2023-05-04T00:19:42.096Z,100
2023-05-04T00:20:42.058Z,100
2023-05-04T00:21:42.056Z,100
2023-05-04T00:22:43.549Z,100
2023-05-04T00:23:47.191Z,100
2023-05-04T00:24:48.069Z,100
2023-05-04T00:26:42.123Z,100
2023-05-04T00:27:42.071Z,100
2023-05-04T00:28:42.058Z,100
2023-05-04T00:29:42.061Z,100
2023-05-04T00:30:42.055Z,100
2023-05-04T00:31:42.064Z,100
2023-05-04T00:32:42.117Z,100
2023-05-04T00:33:42.065Z,100
2023-05-04T00:34:42.054Z,100
2023-05-04T00:35:42.063Z,100
2023-05-04T00:36:42.054Z,100
2023-05-04T00:37:42.099Z,100
2023-05-04T00:38:42.060Z,100
2023-05-04T00:39:42.060Z,100
2023-05-04T00:40:42.049Z,100
2023-05-04T00:41:42.052Z,100
2023-05-04T00:42:42.077Z,100
2023-05-04T00:43:43.662Z,100
2023-05-04T00:44:47.334Z,100
2023-05-04T00:45:47.634Z,100
2023-05-04T00:47:42.206Z,100
2023-05-04T00:48:42.063Z,100
2023-05-04T00:49:42.059Z,100
2023-05-04T00:50:42.098Z,100
2023-05-04T00:51:42.054Z,100
2023-05-04T00:52:42.116Z,100
2023-05-04T00:53:42.059Z,100
2023-05-04T00:54:42.059Z,100
2023-05-04T00:55:42.089Z,100
2023-05-04T00:56:42.070Z,100
2023-05-04T00:57:42.110Z,100
2023-05-04T00:58:42.053Z,100
2023-05-04T00:59:42.070Z,100
2023-05-04T01:00:42.104Z,100
2023-05-04T01:01:42.088Z,100
2023-05-04T01:02:42.137Z,100
2023-05-04T01:03:42.105Z,100
2023-05-04T01:04:43.807Z,100
2023-05-04T01:05:47.581Z,100
2023-05-04T01:06:48.279Z,100
2023-05-04T01:08:42.085Z,100
2023-05-04T01:09:42.075Z,100
2023-05-04T01:10:42.062Z,100
2023-05-04T01:11:42.136Z,100
2023-05-04T01:12:42.103Z,100
2023-05-04T01:13:42.342Z,100
2023-05-04T01:14:42.073Z,100
2023-05-04T01:15:42.062Z,100
2023-05-04T01:16:42.099Z,100
2023-05-04T01:17:42.091Z,100
2023-05-04T01:18:42.084Z,100
2023-05-04T01:19:42.082Z,100
2023-05-04T01:20:42.054Z,100
2023-05-04T01:21:42.079Z,100
2023-05-04T01:22:42.061Z,100
2023-05-04T01:23:42.084Z,100
2023-05-04T01:24:42.284Z,100
2023-05-04T01:25:43.797Z,100
2023-05-04T01:26:47.610Z,100
2023-05-04T01:27:49.533Z,100
2023-05-04T01:29:42.063Z,100
2023-05-04T01:30:42.089Z,100
2023-05-04T01:31:42.060Z,100
2023-05-04T01:32:42.138Z,100
2023-05-04T01:33:42.104Z,100
2023-05-04T01:34:42.061Z,100
2023-05-04T01:35:42.065Z,100
2023-05-04T01:36:42.216Z,100
2023-05-04T01:37:42.078Z,100
2023-05-04T01:38:42.056Z,100
2023-05-04T01:39:42.053Z,100
2023-05-04T01:40:42.063Z,100
2023-05-04T01:41:42.051Z,100
2023-05-04T01:42:42.061Z,100
2023-05-04T01:43:42.055Z,100
2023-05-04T01:44:42.055Z,100
2023-05-04T01:45:42.056Z,100
2023-05-04T01:46:44.002Z,100
2023-05-04T01:47:47.487Z,100
2023-05-04T01:48:49.649Z,100
2023-05-04T01:50:42.080Z,100
2023-05-04T01:51:42.055Z,100
2023-05-04T01:52:42.046Z,100
2023-05-04T01:53:42.054Z,100
2023-05-04T01:54:42.051Z,100
2023-05-04T01:55:42.090Z,100
2023-05-04T01:56:42.051Z,100
2023-05-04T01:57:42.188Z,100
2023-05-04T01:58:42.072Z,100
2023-05-04T01:59:42.060Z,100
2023-05-04T02:00:42.123Z,100
2023-05-04T02:01:42.106Z,100
2023-05-04T02:02:42.088Z,100
2023-05-04T02:03:42.233Z,100
2023-05-04T02:04:42.059Z,100
2023-05-04T02:05:42.088Z,100
2023-05-04T02:06:42.068Z,100
2023-05-04T02:07:44.041Z,100
2023-05-04T02:08:46.996Z,100
2023-05-04T02:09:49.735Z,100
2023-05-04T02:11:42.053Z,100
2023-05-04T02:12:42.113Z,100
2023-05-04T02:13:42.042Z,100
2023-05-04T02:14:42.055Z,100
2023-05-04T02:15:42.126Z,100
2023-05-04T02:16:42.064Z,100
2023-05-04T02:17:42.098Z,100
2023-05-04T02:18:42.056Z,100
2023-05-04T02:19:42.067Z,100
2023-05-04T02:20:42.044Z,100
2023-05-04T02:21:42.108Z,100
2023-05-04T02:22:42.083Z,100
2023-05-04T02:23:42.047Z,100
2023-05-04T02:24:42.126Z,100
2023-05-04T02:25:42.066Z,100
2023-05-04T02:26:42.053Z,100
2023-05-04T02:27:42.050Z,100
2023-05-04T02:28:42.053Z,100
2023-05-04T02:29:44.376Z,100
2023-05-04T02:30:47.335Z,100
2023-05-04T02:31:48.840Z,100
2023-05-04T02:32:42.071Z,100
2023-05-04T02:33:42.044Z,100
2023-05-04T02:34:42.053Z,100
2023-05-04T02:35:42.097Z,100
2023-05-04T02:36:42.043Z,100
2023-05-04T02:37:42.042Z,100
2023-05-04T02:38:42.057Z,100
2023-05-04T02:39:42.059Z,100
2023-05-04T02:40:42.063Z,100
2023-05-04T02:41:42.051Z,100
2023-05-04T02:42:42.067Z,100
2023-05-04T02:43:42.056Z,100
2023-05-04T02:44:42.077Z,100
2023-05-04T02:45:42.069Z,100
2023-05-04T02:46:42.050Z,100
2023-05-04T02:47:42.099Z,100
2023-05-04T02:48:42.051Z,100
2023-05-04T02:49:42.290Z,100
2023-05-04T02:50:44.236Z,100
2023-05-04T02:51:47.387Z,100
2023-05-04T02:52:48.883Z,100
2023-05-04T02:53:42.050Z,100
2023-05-04T02:54:42.060Z,100
2023-05-04T02:55:42.069Z,100
2023-05-04T02:56:42.093Z,100
2023-05-04T02:57:42.054Z,100
2023-05-04T02:58:42.056Z,100
2023-05-04T02:59:42.050Z,100
2023-05-04T03:00:42.046Z,100
2023-05-04T03:01:42.092Z,100
2023-05-04T03:02:42.070Z,100
2023-05-04T03:03:42.060Z,100
2023-05-04T03:04:42.071Z,100
2023-05-04T03:05:42.060Z,100
2023-05-04T03:06:42.096Z,100
2023-05-04T03:07:42.066Z,100
2023-05-04T03:08:42.064Z,100
2023-05-04T03:09:42.057Z,100
2023-05-04T03:10:42.100Z,100
2023-05-04T03:11:44.488Z,100
2023-05-04T03:12:47.518Z,100
2023-05-04T03:13:48.446Z,100
2023-05-04T03:14:42.117Z,100
2023-05-04T03:15:42.061Z,100
2023-05-04T03:16:42.123Z,100
2023-05-04T03:17:42.100Z,100
2023-05-04T03:18:42.055Z,100
2023-05-04T03:19:42.050Z,100
2023-05-04T03:20:42.054Z,100
2023-05-04T03:21:42.075Z,100
2023-05-04T03:22:42.058Z,100
2023-05-04T03:23:42.045Z,100
2023-05-04T03:24:42.057Z,100
2023-05-04T03:25:42.058Z,100
2023-05-04T03:26:42.072Z,100
2023-05-04T03:27:42.055Z,100
2023-05-04T03:28:42.063Z,100
2023-05-04T03:29:42.056Z,100
2023-05-04T03:30:42.053Z,100
2023-05-04T03:31:42.305Z,100
2023-05-04T03:32:44.509Z,100
2023-05-04T03:33:47.637Z,100
2023-05-04T03:34:48.680Z,100
2023-05-04T03:35:42.050Z,100
2023-05-04T03:36:42.236Z,100
2023-05-04T03:37:42.070Z,100
2023-05-04T03:38:42.059Z,100
2023-05-04T03:39:42.064Z,100
2023-05-04T03:40:42.102Z,100
2023-05-04T03:41:42.058Z,100
2023-05-04T03:42:42.066Z,100
2023-05-04T03:43:42.058Z,100
2023-05-04T03:44:42.066Z,100
2023-05-04T03:45:42.077Z,100
2023-05-04T03:46:42.061Z,100
2023-05-04T03:47:42.094Z,100
2023-05-04T03:48:42.080Z,100
2023-05-04T03:49:42.057Z,100
2023-05-04T03:50:42.056Z,100
2023-05-04T03:51:42.072Z,100
2023-05-04T03:52:42.387Z,100
2023-05-04T03:53:47.561Z,100
2023-05-04T03:54:47.720Z,100
2023-05-04T03:55:48.712Z,100
2023-05-04T03:56:42.061Z,100
2023-05-04T03:57:42.197Z,100
2023-05-04T03:58:42.068Z,100
2023-05-04T03:59:42.056Z,100
2023-05-04T04:00:42.057Z,100
2023-05-04T04:01:42.078Z,100
2023-05-04T04:02:42.411Z,100
2023-05-04T04:03:42.100Z,100
2023-05-04T04:04:42.094Z,100
2023-05-04T04:05:42.063Z,100
2023-05-04T04:06:45.077Z,100
2023-05-04T04:08:42.066Z,100
2023-05-04T04:09:42.068Z,100
2023-05-04T04:10:42.059Z,100
2023-05-04T04:11:42.059Z,100
2023-05-04T04:12:42.065Z,100
2023-05-04T04:13:42.452Z,100
2023-05-04T04:14:45.509Z,100
2023-05-04T04:15:47.834Z,100
2023-05-04T04:16:48.831Z,100
2023-05-04T04:17:42.061Z,100
2023-05-04T04:18:42.052Z,100
2023-05-04T04:19:42.068Z,100
2023-05-04T04:20:42.055Z,100
2023-05-04T04:21:42.139Z,100
2023-05-04T04:22:42.059Z,100
2023-05-04T04:23:42.052Z,100
2023-05-04T04:24:42.082Z,100
2023-05-04T04:25:44.560Z,100
2023-05-04T04:26:42.067Z,100
2023-05-04T04:27:42.062Z,100
2023-05-04T04:28:42.062Z,100
2023-05-04T04:29:42.071Z,100
2023-05-04T04:30:42.047Z,100
2023-05-04T04:31:42.195Z,100
2023-05-04T04:32:42.100Z,100
2023-05-04T04:33:42.055Z,100
2023-05-04T04:34:42.557Z,100
2023-05-04T04:35:44.772Z,100
2023-05-04T04:36:47.946Z,100
2023-05-04T04:37:48.959Z,100
2023-05-04T04:38:42.067Z,100
2023-05-04T04:39:42.078Z,100
2023-05-04T04:40:42.050Z,100
2023-05-04T04:41:42.064Z,100
2023-05-04T04:42:42.074Z,100
2023-05-04T04:43:42.062Z,100
2023-05-04T04:44:42.084Z,100
2023-05-04T04:45:42.064Z,100
2023-05-04T04:46:42.084Z,100
2023-05-04T04:47:42.253Z,100
2023-05-04T04:48:42.068Z,100
2023-05-04T04:49:42.146Z,100
2023-05-04T04:50:42.206Z,100
2023-05-04T04:51:42.058Z,100
2023-05-04T04:52:42.067Z,100
2023-05-04T04:53:42.055Z,100
2023-05-04T04:54:42.064Z,100
2023-05-04T04:55:42.159Z,100
2023-05-04T04:56:44.878Z,100
2023-05-04T04:57:48.032Z,100
2023-05-04T04:58:49.055Z,100
2023-05-04T04:59:42.060Z,100
2023-05-04T05:00:42.084Z,100
2023-05-04T05:01:42.089Z,100
2023-05-04T05:02:42.090Z,100
2023-05-04T05:03:42.057Z,100
2023-05-04T05:04:42.072Z,100
2023-05-04T05:05:42.062Z,100
2023-05-04T05:06:42.076Z,100
2023-05-04T05:07:42.070Z,100
2023-05-04T05:08:42.046Z,100
2023-05-04T05:09:42.060Z,100
2023-05-04T05:10:45.180Z,100
2023-05-04T05:11:42.092Z,100
2023-05-04T05:12:42.080Z,100
2023-05-04T05:13:42.060Z,100
2023-05-04T05:14:42.050Z,100
2023-05-04T05:15:42.067Z,100
2023-05-04T05:16:42.245Z,100
2023-05-04T05:17:45.040Z,100
2023-05-04T05:18:48.112Z,100
2023-05-04T05:19:49.196Z,100
2023-05-04T05:20:42.089Z,100
2023-05-04T05:21:42.070Z,100
2023-05-04T05:22:42.058Z,100
2023-05-04T05:23:42.057Z,100
2023-05-04T05:24:42.066Z,100
2023-05-04T05:25:42.086Z,100
2023-05-04T05:26:42.063Z,100
2023-05-04T05:27:42.059Z,100
2023-05-04T05:28:42.088Z,100
2023-05-04T05:29:42.062Z,100
2023-05-04T05:30:42.112Z,100
2023-05-04T05:31:42.062Z,100
2023-05-04T05:32:42.083Z,100
2023-05-04T05:33:42.066Z,100
2023-05-04T05:34:42.068Z,100
2023-05-04T05:35:42.046Z,100
2023-05-04T05:36:42.059Z,100
2023-05-04T05:37:42.063Z,100
2023-05-04T05:38:42.380Z,100
2023-05-04T05:39:46.005Z,100
2023-05-04T05:40:48.850Z,100
2023-05-04T05:42:42.064Z,100
2023-05-04T05:43:42.054Z,100
2023-05-04T05:44:42.054Z,100
2023-05-04T05:45:42.065Z,100
2023-05-04T05:46:42.106Z,100
2023-05-04T05:47:42.096Z,100
2023-05-04T05:48:42.056Z,100
2023-05-04T05:49:43.067Z,100
2023-05-04T05:50:42.067Z,100
2023-05-04T05:51:42.062Z,100
2023-05-04T05:52:42.059Z,100
2023-05-04T05:53:42.059Z,100
2023-05-04T05:54:42.060Z,100
2023-05-04T05:55:42.059Z,100
2023-05-04T05:56:42.076Z,100
2023-05-04T05:57:42.059Z,100
2023-05-04T05:58:42.061Z,100
2023-05-04T05:59:42.480Z,100
2023-05-04T06:00:44.238Z,100
2023-05-04T06:01:47.353Z,100
2023-05-04T06:03:42.192Z,100
2023-05-04T06:04:42.162Z,100
2023-05-04T06:05:42.057Z,100
2023-05-04T06:06:44.365Z,100
2023-05-04T06:07:42.121Z,100
2023-05-04T06:08:42.053Z,100
2023-05-04T06:09:42.075Z,100
2023-05-04T06:10:42.069Z,100
2023-05-04T06:11:42.077Z,100
2023-05-04T06:12:42.088Z,100
2023-05-04T06:13:42.070Z,100
2023-05-04T06:14:42.057Z,100
2023-05-04T06:15:42.065Z,100
2023-05-04T06:16:42.106Z,100
2023-05-04T06:17:42.093Z,100
2023-05-04T06:18:42.064Z,100
2023-05-04T06:19:42.056Z,100
2023-05-04T06:20:42.621Z,100
2023-05-04T06:21:46.192Z,100
2023-05-04T06:22:49.147Z,100
2023-05-04T06:24:42.087Z,100
2023-05-04T06:25:42.053Z,100
2023-05-04T06:26:42.062Z,100
2023-05-04T06:27:42.063Z,100
2023-05-04T06:28:42.088Z,100
2023-05-04T06:29:42.045Z,100
2023-05-04T06:30:42.059Z,100
2023-05-04T06:31:42.072Z,100
2023-05-04T06:32:42.058Z,100
2023-05-04T06:33:42.091Z,100
2023-05-04T06:34:42.084Z,100
2023-05-04T06:35:42.083Z,100
2023-05-04T06:36:42.071Z,100
2023-05-04T06:37:42.054Z,100
2023-05-04T06:38:42.070Z,100
2023-05-04T06:39:42.067Z,100
2023-05-04T06:40:42.055Z,100
2023-05-04T06:41:42.673Z,100
2023-05-04T06:42:46.332Z,100
2023-05-04T06:43:49.187Z,100
2023-05-04T06:45:42.093Z,100
2023-05-04T06:46:42.046Z,100
2023-05-04T06:47:42.059Z,100
2023-05-04T06:48:42.052Z,100
2023-05-04T06:49:42.166Z,100
2023-05-04T06:50:42.069Z,100
2023-05-04T06:51:42.057Z,100
2023-05-04T06:52:42.104Z,100
2023-05-04T06:53:42.057Z,100
2023-05-04T06:54:42.050Z,100
2023-05-04T06:55:42.063Z,100
2023-05-04T06:56:42.097Z,100
2023-05-04T06:57:42.048Z,100
2023-05-04T06:58:42.053Z,100
2023-05-04T06:59:42.073Z,100
2023-05-04T07:00:42.052Z,100
2023-05-04T07:01:42.144Z,100
2023-05-04T07:02:42.853Z,100
2023-05-04T07:03:46.553Z,100
2023-05-04T07:04:49.449Z,100
2023-05-04T07:06:42.075Z,100
2023-05-04T07:07:42.045Z,100
2023-05-04T07:08:42.064Z,100
2023-05-04T07:09:42.063Z,100
2023-05-04T07:10:42.164Z,100
2023-05-04T07:11:42.084Z,100
2023-05-04T07:12:42.075Z,100
2023-05-04T07:13:42.100Z,100
2023-05-04T07:14:42.052Z,100
2023-05-04T07:15:42.059Z,100
2023-05-04T07:16:42.086Z,100
2023-05-04T07:17:42.081Z,100
2023-05-04T07:18:42.050Z,100
2023-05-04T07:19:42.044Z,100
2023-05-04T07:20:42.062Z,100
2023-05-04T07:21:42.067Z,100
2023-05-04T07:22:42.050Z,100
2023-05-04T07:23:42.931Z,100
2023-05-04T07:24:46.544Z,100
2023-05-04T07:25:49.818Z,100
2023-05-04T07:27:42.076Z,100
2023-05-04T07:28:42.061Z,100
2023-05-04T07:29:42.057Z,100
2023-05-04T07:30:42.072Z,100
2023-05-04T07:31:42.222Z,100
2023-05-04T07:32:42.110Z,100
2023-05-04T07:33:42.054Z,100
2023-05-04T07:34:48.062Z,100
2023-05-04T07:35:42.079Z,100
2023-05-04T07:36:45.050Z,100
2023-05-04T07:38:42.056Z,100
2023-05-04T07:39:42.044Z,100
2023-05-04T07:40:42.048Z,100
2023-05-04T07:41:42.110Z,100
2023-05-04T07:42:42.059Z,100
2023-05-04T07:43:42.059Z,100
2023-05-04T07:44:43.018Z,100
2023-05-04T07:45:46.684Z,100
2023-05-04T07:46:49.594Z,100
2023-05-04T07:48:42.053Z,100
2023-05-04T07:49:42.087Z,100
2023-05-04T07:50:42.057Z,100
2023-05-04T07:51:42.051Z,100
2023-05-04T07:52:42.217Z,100
2023-05-04T07:53:42.060Z,100
2023-05-04T07:54:42.047Z,100
2023-05-04T07:55:42.062Z,100
2023-05-04T07:56:42.049Z,100
2023-05-04T07:57:42.054Z,100
2023-05-04T07:58:42.090Z,100
2023-05-04T07:59:42.044Z,100
2023-05-04T08:00:42.046Z,100
2023-05-04T08:01:45.079Z,100
2023-05-04T08:03:42.054Z,100
2023-05-04T08:04:42.067Z,100
2023-05-04T08:05:43.124Z,100
2023-05-04T08:06:46.691Z,100
2023-05-04T08:07:49.667Z,100
2023-05-04T08:09:42.047Z,100
2023-05-04T08:10:42.045Z,100
2023-05-04T08:11:42.050Z,100
2023-05-04T08:12:42.096Z,100
2023-05-04T08:13:42.047Z,100
2023-05-04T08:14:42.049Z,100
2023-05-04T08:15:42.050Z,100
2023-05-04T08:16:42.050Z,100
2023-05-04T08:17:42.080Z,100
2023-05-04T08:18:42.054Z,100
2023-05-04T08:19:42.052Z,100
2023-05-04T08:20:42.052Z,100
2023-05-04T08:21:42.059Z,100
2023-05-04T08:22:42.078Z,100
2023-05-04T08:23:42.048Z,100
2023-05-04T08:24:42.050Z,100
2023-05-04T08:25:42.065Z,100
2023-05-04T08:26:47.358Z,100
2023-05-04T08:27:46.808Z,100
2023-05-04T08:28:49.776Z,100
2023-05-04T08:30:42.065Z,100
2023-05-04T08:31:42.099Z,100
2023-05-04T08:32:42.068Z,100
2023-05-04T08:33:42.094Z,100
2023-05-04T08:34:42.059Z,100
2023-05-04T08:35:42.053Z,100
2023-05-04T08:36:42.061Z,100
2023-05-04T08:37:42.068Z,100
2023-05-04T08:38:42.152Z,100
2023-05-04T08:39:45.063Z,100
2023-05-04T08:41:42.068Z,100
2023-05-04T08:42:42.064Z,100
2023-05-04T08:43:42.125Z,100
2023-05-04T08:44:45.062Z,100
2023-05-04T08:46:42.061Z,100
2023-05-04T08:47:43.408Z,100
2023-05-04T08:48:46.982Z,100
2023-05-04T08:49:48.302Z,100
2023-05-04T08:51:42.065Z,100
2023-05-04T08:52:42.060Z,100
2023-05-04T08:53:42.057Z,100
2023-05-04T08:54:42.059Z,100
2023-05-04T08:55:42.099Z,100
2023-05-04T08:56:42.126Z,100
2023-05-04T08:57:42.138Z,100
2023-05-04T08:58:42.063Z,100
2023-05-04T08:59:42.067Z,100
2023-05-04T09:00:42.068Z,100
2023-05-04T09:01:42.099Z,100
2023-05-04T09:02:42.118Z,100
2023-05-04T09:03:42.117Z,100
2023-05-04T09:04:42.052Z,100
2023-05-04T09:05:42.165Z,100
2023-05-04T09:06:42.063Z,100
2023-05-04T09:07:42.130Z,100
2023-05-04T09:08:42.113Z,100
2023-05-04T09:09:43.526Z,100
2023-05-04T09:10:46.940Z,100
2023-05-04T09:11:49.102Z,100
2023-05-04T09:13:42.055Z,100
2023-05-04T09:14:42.057Z,100
2023-05-04T09:15:42.065Z,100
2023-05-04T09:16:42.087Z,100
2023-05-04T09:17:57.287Z,100
2023-05-04T09:18:42.053Z,100
2023-05-04T09:19:42.052Z,100
2023-05-04T09:20:42.061Z,100
2023-05-04T09:21:42.067Z,100
2023-05-04T09:22:42.080Z,100
2023-05-04T09:23:42.121Z,100
2023-05-04T09:24:42.052Z,100
2023-05-04T09:25:42.060Z,100
2023-05-04T09:26:42.094Z,100
2023-05-04T09:27:42.060Z,100
2023-05-04T09:28:42.062Z,100
2023-05-04T09:29:42.057Z,100
2023-05-04T09:30:43.812Z,100
2023-05-04T09:31:47.056Z,100
2023-05-04T09:32:49.328Z,100
2023-05-04T09:34:42.128Z,100
2023-05-04T09:35:42.100Z,100
2023-05-04T09:36:42.061Z,100
2023-05-04T09:37:42.065Z,100
2023-05-04T09:38:42.052Z,100
2023-05-04T09:39:42.048Z,100
2023-05-04T09:40:42.164Z,100
2023-05-04T09:41:42.082Z,100
2023-05-04T09:42:42.062Z,100
2023-05-04T09:43:42.073Z,100
2023-05-04T09:44:42.049Z,100
2023-05-04T09:45:42.106Z,100
2023-05-04T09:46:42.075Z,100
2023-05-04T09:47:42.092Z,100
2023-05-04T09:48:42.073Z,100
2023-05-04T09:49:42.040Z,100
2023-05-04T09:50:42.071Z,100
2023-05-04T09:51:43.798Z,100
2023-05-04T09:52:47.273Z,100
2023-05-04T09:53:49.380Z,100
2023-05-04T09:55:42.176Z,100
2023-05-04T09:56:42.060Z,100
2023-05-04T09:57:42.121Z,100
2023-05-04T09:58:42.096Z,100
2023-05-04T09:59:42.087Z,100
2023-05-04T10:00:42.063Z,100
2023-05-04T10:01:46.139Z,100
2023-05-04T10:03:42.051Z,100
2023-05-04T10:04:42.121Z,100
2023-05-04T10:05:42.091Z,100
2023-05-04T10:06:42.057Z,100
2023-05-04T10:07:43.078Z,100
2023-05-04T10:08:42.054Z,100
2023-05-04T10:09:42.171Z,100
2023-05-04T10:10:42.051Z,100
2023-05-04T10:11:42.054Z,100
2023-05-04T10:12:43.921Z,100
2023-05-04T10:13:46.891Z,100
2023-05-04T10:14:49.527Z,100
2023-05-04T10:16:42.054Z,100
2023-05-04T10:17:42.086Z,100
2023-05-04T10:18:42.055Z,100
2023-05-04T10:19:42.184Z,100
2023-05-04T10:20:42.063Z,100
2023-05-04T10:21:42.049Z,100
2023-05-04T10:22:42.063Z,100
2023-05-04T10:23:42.130Z,100
2023-05-04T10:24:42.304Z,100
2023-05-04T10:25:42.055Z,100
2023-05-04T10:26:42.063Z,100
2023-05-04T10:27:42.060Z,100
2023-05-04T10:28:42.053Z,100
2023-05-04T10:29:42.477Z,100
2023-05-04T10:30:42.061Z,100
2023-05-04T10:31:42.077Z,100
2023-05-04T10:32:42.067Z,100
2023-05-04T10:33:43.957Z,100
2023-05-04T10:34:47.400Z,100
2023-05-04T10:35:49.547Z,100
2023-05-04T10:37:42.052Z,100
2023-05-04T10:38:42.060Z,100
2023-05-04T10:39:42.384Z,100
2023-05-04T10:40:42.164Z,100
2023-05-04T10:41:42.060Z,100
2023-05-04T10:42:42.052Z,100
2023-05-04T10:43:42.055Z,100
2023-05-04T10:44:42.459Z,100
2023-05-04T10:45:42.136Z,100
2023-05-04T10:46:42.050Z,100
2023-05-04T10:47:42.100Z,100
2023-05-04T10:48:42.053Z,100
2023-05-04T10:49:42.563Z,100
2023-05-04T10:50:42.069Z,100
2023-05-04T10:51:49.506Z,100
2023-05-04T10:53:42.046Z,100
2023-05-04T10:54:44.032Z,99.11
2023-05-04T10:55:46.911Z,100
2023-05-04T10:56:49.654Z,100
2023-05-04T10:58:42.052Z,100
2023-05-04T10:59:42.070Z,97.17
2023-05-04T11:00:42.048Z,96.01
2023-05-04T11:01:42.099Z,97.09
2023-05-04T11:02:42.110Z,97.33
2023-05-04T11:03:42.245Z,97.78
2023-05-04T11:04:42.050Z,99
2023-05-04T11:05:42.053Z,96.69
2023-05-04T11:06:42.049Z,95.97
2023-05-04T11:07:42.077Z,96.25
2023-05-04T11:08:42.064Z,96.25
2023-05-04T11:09:42.063Z,97.42
2023-05-04T11:10:42.091Z,97.47
2023-05-04T11:11:42.183Z,97.22
2023-05-04T11:12:42.060Z,97
2023-05-04T11:13:42.053Z,96.52
2023-05-04T11:14:42.060Z,98.02
2023-05-04T11:15:44.162Z,95.37
2023-05-04T11:16:47.074Z,95.82
2023-05-04T11:17:49.795Z,95.27
2023-05-04T11:19:42.056Z,94.02
2023-05-04T11:20:42.084Z,94.63
2023-05-04T11:21:42.053Z,93.14
2023-05-04T11:22:42.056Z,95.5
2023-05-04T11:23:42.050Z,97.85
2023-05-04T11:24:42.048Z,99.98
2023-05-04T11:25:42.095Z,100
2023-05-04T11:26:42.053Z,99.16
2023-05-04T11:27:42.063Z,97.44
2023-05-04T11:28:42.054Z,100
2023-05-04T11:29:42.065Z,94.26
2023-05-04T11:30:42.070Z,94.23
2023-05-04T11:31:42.087Z,93.33
2023-05-04T11:32:42.188Z,93.9
2023-05-04T11:33:42.053Z,97.39
2023-05-04T11:34:42.047Z,100
2023-05-04T11:35:42.054Z,100
2023-05-04T11:36:44.270Z,100
2023-05-04T11:37:47.125Z,99.97
2023-05-04T11:38:49.870Z,100
2023-05-04T11:40:42.055Z,98.76
2023-05-04T11:41:42.090Z,99.71
2023-05-04T11:42:42.059Z,98.72
2023-05-04T11:43:42.073Z,95.35
2023-05-04T11:44:42.058Z,95.69
2023-05-04T11:45:42.058Z,95.48
2023-05-04T11:46:42.117Z,98.06
2023-05-04T11:47:42.115Z,97.33
2023-05-04T11:48:42.061Z,96.76
2023-05-04T11:49:42.095Z,94.5
2023-05-04T11:50:42.054Z,96.66
2023-05-04T11:51:42.101Z,96.72
2023-05-04T11:52:42.060Z,96.73
2023-05-04T11:53:42.050Z,96.86
2023-05-04T11:54:42.101Z,96.51
2023-05-04T11:55:42.080Z,95.94
2023-05-04T11:56:42.079Z,95.62
2023-05-04T11:57:44.368Z,97.12
2023-05-04T11:58:47.254Z,97.12
2023-05-04T11:59:49.934Z,97.88
2023-05-04T12:01:42.074Z,90.61
2023-05-04T12:02:42.087Z,92.47
2023-05-04T12:03:53.494Z,91.3
2023-05-04T12:04:42.255Z,90.03
2023-05-04T12:05:42.092Z,92.56
2023-05-04T12:06:42.084Z,93.21
2023-05-04T12:07:42.088Z,94.26
2023-05-04T12:08:42.265Z,92.22
2023-05-04T12:09:42.301Z,91.9
2023-05-04T12:10:42.051Z,92.18
2023-05-04T12:11:42.084Z,93.23
2023-05-04T12:12:42.195Z,92.44
2023-05-04T12:13:42.064Z,92.81
2023-05-04T12:14:42.223Z,90.9
2023-05-04T12:15:42.081Z,92.9
2023-05-04T12:16:42.162Z,92.02
2023-05-04T12:17:42.090Z,93.95
2023-05-04T12:18:42.118Z,93.11
2023-05-04T12:19:45.530Z,94.04
2023-05-04T12:20:47.848Z,93.08
2023-05-04T12:21:48.884Z,91.94
2023-05-04T12:22:42.085Z,93.56
2023-05-04T12:23:42.047Z,90.92
2023-05-04T12:24:42.133Z,92.3
2023-05-04T12:25:57.631Z,90.65
2023-05-04T12:27:42.086Z,90.58
2023-05-04T12:28:42.068Z,88
2023-05-04T12:29:42.220Z,86.82
2023-05-04T12:30:42.050Z,86.17
2023-05-04T12:31:42.066Z,86.48
2023-05-04T12:32:42.280Z,86.91
2023-05-04T12:33:42.162Z,86.2
2023-05-04T12:34:42.221Z,86.16
2023-05-04T12:35:42.056Z,85.74
2023-05-04T12:36:42.094Z,83.04
2023-05-04T12:37:42.088Z,81.59
2023-05-04T12:38:42.066Z,85.33
2023-05-04T12:39:42.218Z,82.04
2023-05-04T12:40:44.865Z,82.19
2023-05-04T12:41:48.014Z,83.35
2023-05-04T12:42:49.032Z,80.43
2023-05-04T12:43:42.056Z,82.01
2023-05-04T12:44:42.348Z,85.57
2023-05-04T12:45:42.148Z,80.19
2023-05-04T12:46:42.053Z,85.47
2023-05-04T12:47:42.090Z,84.37
2023-05-04T12:48:42.160Z,84.95
2023-05-04T12:49:42.048Z,86.35
2023-05-04T12:50:42.093Z,85.74
2023-05-04T12:51:42.062Z,82.27
2023-05-04T12:52:42.088Z,86.82
2023-05-04T12:53:42.062Z,82.34
2023-05-04T12:54:42.233Z,80.68
2023-05-04T12:55:42.065Z,82.31
2023-05-04T12:56:42.053Z,80.52
2023-05-04T12:57:42.051Z,81.36
2023-05-04T12:58:42.069Z,85.22
2023-05-04T12:59:42.046Z,83.41
2023-05-04T13:00:43.865Z,84.82
2023-05-04T13:01:45.006Z,84.78
2023-05-04T13:02:48.173Z,86.5
2023-05-04T13:03:49.451Z,84.84
2023-05-04T13:04:42.060Z,85.73
2023-05-04T13:05:42.051Z,83.12
2023-05-04T13:06:42.090Z,80.25
2023-05-04T13:07:42.131Z,79.38
2023-05-04T13:08:42.059Z,78.35
2023-05-04T13:09:42.065Z,80.1
2023-05-04T13:10:42.054Z,81.21
2023-05-04T13:11:42.050Z,80.34
2023-05-04T13:12:42.960Z,80.27
2023-05-04T13:13:42.410Z,81.73
2023-05-04T13:14:42.056Z,81.69
2023-05-04T13:15:42.075Z,80.83
2023-05-04T13:16:42.067Z,79.32
2023-05-04T13:17:42.071Z,80.63
2023-05-04T13:18:42.050Z,82.07
2023-05-04T13:19:42.097Z,82.89
2023-05-04T13:20:42.061Z,80.67
2023-05-04T13:21:42.366Z,81.05
2023-05-04T13:22:45.816Z,81.23
2023-05-04T13:23:48.171Z,80.13
2023-05-04T13:24:49.082Z,81.02
2023-05-04T13:25:42.057Z,82.88
2023-05-04T13:26:42.059Z,82.66
2023-05-04T13:27:42.066Z,85.06
2023-05-04T13:28:42.074Z,82.18
2023-05-04T13:29:42.059Z,83.47
2023-05-04T13:30:42.059Z,83.01
2023-05-04T13:31:46.130Z,80.12
2023-05-04T13:33:42.052Z,78.39
2023-05-04T13:34:42.058Z,76.1
2023-05-04T13:35:45.061Z,76.61
2023-05-04T13:36:42.070Z,76.2
2023-05-04T13:37:42.057Z,76.97
2023-05-04T13:38:42.103Z,74.89
2023-05-04T13:39:42.104Z,75.03
2023-05-04T13:40:42.080Z,74.09
2023-05-04T13:41:42.063Z,75.18
2023-05-04T13:42:42.585Z,74.52
2023-05-04T13:43:46.164Z,76.39
2023-05-04T13:44:48.949Z,77.8
2023-05-04T13:46:42.118Z,72.66
2023-05-04T13:47:42.426Z,72.64
2023-05-04T13:48:42.208Z,72.82
2023-05-04T13:49:42.059Z,73.03
2023-05-04T13:50:42.118Z,72.03
2023-05-04T13:51:42.071Z,75.22
2023-05-04T13:52:42.329Z,76.22
2023-05-04T13:53:42.074Z,75.9
2023-05-04T13:54:42.327Z,74.94
2023-05-04T13:55:42.095Z,77.73
2023-05-04T13:56:42.056Z,73.39
2023-05-04T13:57:42.074Z,68.79
2023-05-04T13:58:42.119Z,72.88
2023-05-04T13:59:54.836Z,75.01
2023-05-04T14:00:42.117Z,75.46
2023-05-04T14:01:42.225Z,75.07
2023-05-04T14:02:42.214Z,74.93
2023-05-04T14:03:42.637Z,74.96
2023-05-04T14:04:46.583Z,73.37
2023-05-04T14:05:49.061Z,74.78
2023-05-04T14:07:42.059Z,72.21
2023-05-04T14:08:42.064Z,70.96
2023-05-04T14:09:42.064Z,66.9
2023-05-04T14:10:42.091Z,66.22
2023-05-04T14:11:42.068Z,63.55